Latest Weather Observations for Moorabbin Airport

IDV60801

Issued at 9:35 am EDT Saturday 29 November 2014 (issued every 30 minutes, with the page automatically refreshed every 10 minutes)

About weather observations | Map of weather stations | Latest weather observations for VIC | Other Formats
Station Details ID: 086077 Name: MOORABBIN AIRPORT Lat: -37.98 Lon: 145.10 Height: 12.1 m
Data from the previous 72 hours. | See also: Recent months at Moorabbin Airport
Date/Time
EDT
Temp
°C
App
Temp
°C
Dew
Point
Rel
Hum
%
Delta-T
°C
Wind Press
QNH
hPa
Press
MSL
hPa
Rain
since 9 am
mm
Dir
 
Spd
km/h
Gust
km/h
Spd
kts
Gust
kts
29/09:30am 16.9 17.0 11.6 71 2.9 NNE 2 9 1 5 1017.1 1017.1 0.0
29/09:00am 16.4 15.9 12.0 75 2.4 NE 6 9 3 5 1017.7 1017.7 0.0
29/08:53am 15.6 14.8 11.6 77 2.2 N 7 11 4 6 1017.8 1017.8 0.0
29/08:30am 15.1 14.1 11.1 77 2.1 NNE 7 11 4 6 1017.8 1017.8 0.0
29/08:00am 14.1 13.7 11.1 82 1.6 ENE 4 7 2 4 1017.9 1017.9 0.0
29/07:30am 13.8 13.2 11.7 87 1.1 N 6 7 3 4 1018.1 1018.1 0.0
29/07:00am 13.4 12.6 11.8 90 0.9 N 7 11 4 6 1018.1 1018.1 0.0
29/06:30am 13.3 12.6 11.5 89 1.0 ESE 6 7 3 4 1017.8 1017.8 0.0
29/06:00am 13.2 12.3 11.3 88 1.0 E 7 11 4 6 1017.7 1017.7 0.0
29/05:30am 13.3 12.5 11.2 87 1.1 SSE 6 7 3 4 1017.6 1017.6 0.0
29/05:00am 13.3 12.4 11.2 87 1.1 SSE 7 13 4 7 1017.6 1017.6 0.0
29/04:30am 12.7 12.9 10.6 87 1.1 CALM 0 0 0 0 1017.3 1017.3 0.0
29/04:00am 11.9 12.0 10.0 88 1.0 CALM 0 0 0 0 1017.3 1017.3 0.0
29/03:35am 11.8 11.8 9.9 88 1.0 CALM 0 0 0 0 1017.3 1017.3 0.0
29/03:30am 11.6 11.6 9.9 89 0.9 CALM 0 0 0 0 1017.3 1017.3 0.0
29/03:00am 11.1 9.9 9.5 90 0.8 SSE 6 6 3 3 1017.6 1017.6 0.0
29/02:54am 11.0 9.7 9.3 89 0.8 SSE 6 7 3 4 1017.6 1017.6 0.0
29/02:30am 11.1 10.9 9.2 88 0.9 CALM 0 0 0 0 1017.6 1017.6 0.0
29/02:16am 11.1 10.9 9.2 88 0.9 CALM 0 0 0 0 1017.7 1017.7 0.0
29/02:00am 11.1 10.8 8.8 86 1.1 CALM 0 0 0 0 1017.8 1017.8 0.0
29/01:30am 11.8 11.0 9.5 86 1.2 S 4 6 2 3 1018.1 1018.1 0.0
29/01:00am 11.8 9.9 9.2 84 1.3 SSE 9 11 5 6 1018.2 1018.2 0.0
29/12:30am 12.1 9.9 9.5 84 1.3 SSE 11 13 6 7 1018.9 1018.9 0.0
29/12:00am 12.1 9.9 9.3 83 1.4 SSE 11 13 6 7 1019.3 1019.3 0.0
 
Date/Time
EDT
Temp
°C
App
Temp
°C
Dew
Point
Rel
Hum
%
Delta-T
°C
Wind Press
QNH
hPa
Press
MSL
hPa
Rain
since 9 am
mm
Dir
 
Spd
km/h
Gust
km/h
Spd
kts
Gust
kts
28/11:30pm 12.3 10.5 9.3 82 1.5 S 9 11 5 6 1019.7 1019.7 0.0
28/11:00pm 12.3 10.4 9.1 81 1.6 S 9 15 5 8 1019.9 1019.9 0.0
28/10:30pm 12.6 10.7 9.1 79 1.8 S 9 11 5 6 1020.4 1020.4 0.0
28/10:00pm 13.1 10.9 9.4 78 1.9 SSE 11 15 6 8 1020.6 1020.6 0.0
28/09:30pm 13.4 10.8 9.5 77 2.0 SE 13 17 7 9 1020.4 1020.4 0.0
28/09:00pm 13.9 10.4 8.9 72 2.5 SSE 17 20 9 11 1020.2 1020.2 0.0
28/08:30pm 14.6 10.7 9.6 72 2.6 SE 20 28 11 15 1019.9 1019.9 0.0
28/08:00pm 15.9 12.2 10.2 69 3.0 SE 20 26 11 14 1019.8 1019.8 0.0
28/07:30pm 17.3 12.6 10.7 65 3.5 SE 26 32 14 17 1019.6 1019.6 0.0
28/07:00pm 19.0 15.5 10.8 59 4.4 SE 20 26 11 14 1019.3 1019.3 0.0
28/06:30pm 19.5 16.7 11.3 59 4.5 SSE 17 22 9 12 1018.9 1018.9 0.0
28/06:00pm 20.1 17.1 10.8 55 5.1 SSE 17 24 9 13 1018.9 1018.9 0.0
28/05:30pm 20.6 17.8 11.5 56 5.0 SSE 17 22 9 12 1019.0 1019.0 0.0
28/05:00pm 19.0 15.2 12.3 65 3.7 SW 24 32 13 17 1019.3 1019.3 0.0
28/04:30pm 18.6 14.0 12.4 67 3.5 SSW 28 37 15 20 1019.6 1019.6 0.0
28/04:00pm 17.8 13.6 11.1 65 3.6 SW 24 33 13 18 1020.1 1020.1 0.0
28/03:30pm 17.6 13.5 11.4 67 3.4 SW 24 30 13 16 1020.4 1020.4 0.0
28/03:00pm 18.1 14.7 11.2 64 3.7 SSW 20 28 11 15 1020.8 1020.8 0.0
28/02:30pm 18.1 14.8 11.7 66 3.5 SSW 20 26 11 14 1021.1 1021.1 0.0
28/02:00pm 17.1 12.4 10.5 65 3.5 SW 26 32 14 17 1021.7 1021.7 0.0
28/01:30pm 17.4 13.0 10.3 63 3.8 SW 24 32 13 17 1022.0 1022.0 0.0
28/01:00pm 17.8 14.9 10.9 64 3.7 SSW 17 24 9 13 1022.1 1022.1 0.0
28/12:30pm 17.3 13.9 10.7 65 3.5 SW 19 26 10 14 1022.6 1022.6 0.0
28/12:00pm 16.4 13.5 9.8 65 3.4 WSW 15 24 8 13 1022.7 1022.7 0.0
28/11:30am 16.8 14.3 9.7 63 3.7 S 13 22 7 12 1023.0 1023.0 0.0
28/11:00am 15.7 13.6 9.6 67 3.2 SW 11 19 6 10 1023.2 1023.2 0.0
28/10:30am 15.5 14.2 9.8 69 3.0 SW 7 13 4 7 1023.7 1023.7 0.0
28/10:00am 14.6 12.9 9.8 73 2.5 ESE 9 13 5 7 1024.0 1024.0 0.0
28/09:30am 13.7 12.4 9.2 74 2.3 S 6 7 3 4 1024.3 1024.3 0.0
28/09:00am 13.1 11.6 9.0 76 2.1 ENE 7 11 4 6 1024.4 1024.4 0.0
28/08:30am 12.7 11.4 9.3 80 1.7 E 6 9 3 5 1024.5 1024.5 0.0
28/08:00am 12.7 11.0 9.7 82 1.5 ESE 9 11 5 6 1024.3 1024.3 0.0
28/07:30am 12.2 10.9 9.8 85 1.2 SE 7 9 4 5 1024.1 1024.1 0.0
28/07:00am 11.6 10.1 9.2 85 1.2 ESE 7 9 4 5 1023.8 1023.8 0.0
28/06:30am 11.6 10.3 9.2 85 1.2 E 6 7 3 4 1023.5 1023.5 0.0
28/06:00am 11.0 10.8 8.9 87 1.0 CALM 0 0 0 0 1023.3 1023.3 0.0
28/05:30am 10.7 10.5 9.1 90 0.8 CALM 0 0 0 0 1022.9 1022.9 0.0
28/05:00am 9.6 9.2 8.2 91 0.7 CALM 0 0 0 0 1022.5 1022.5 0.0
28/04:30am 9.7 8.1 8.1 90 0.8 SSE 6 7 3 4 1022.2 1022.2 0.0
28/04:00am 9.5 7.9 7.9 90 0.8 SSE 6 7 3 4 1022.2 1022.2 0.0
28/03:30am 9.8 8.2 8.2 90 0.8 S 6 7 3 4 1022.3 1022.3 0.0
28/03:00am 9.9 8.3 8.2 89 0.8 S 6 7 3 4 1022.3 1022.3 0.0
28/02:30am 9.8 8.2 7.9 88 0.9 SSE 6 7 3 4 1022.5 1022.5 0.0
28/02:00am 10.0 7.7 7.6 85 1.1 SE 9 11 5 6 1022.8 1022.8 0.0
28/01:30am 10.5 8.3 7.9 84 1.3 SSE 9 11 5 6 1023.2 1023.2 0.0
28/01:00am 11.5 9.5 8.7 83 1.4 SSE 9 11 5 6 1023.7 1023.7 0.0
28/12:30am 11.8 10.2 8.6 81 1.6 SSE 7 11 4 6 1023.9 1023.9 0.0
28/12:00am 11.8 9.4 8.6 81 1.6 S 11 13 6 7 1024.2 1024.2 0.0
 
Date/Time
EDT
Temp
°C
App
Temp
°C
Dew
Point
Rel
Hum
%
Delta-T
°C
Wind Press
QNH
hPa
Press
MSL
hPa
Rain
since 9 am
mm
Dir
 
Spd
km/h
Gust
km/h
Spd
kts
Gust
kts
27/11:30pm 12.0 8.9 8.7 80 1.6 SSE 15 19 8 10 1024.2 1024.2 0.0
27/11:00pm 11.2 9.0 7.9 80 1.6 S 9 11 5 6 1024.5 1024.5 0.0
27/10:30pm 11.2 9.0 7.9 80 1.6 SSE 9 13 5 7 1024.7 1024.7 0.0
27/10:00pm 11.5 9.3 8.0 79 1.7 SE 9 13 5 7 1024.8 1024.8 0.0
27/09:30pm 12.3 9.4 8.0 75 2.1 S 13 19 7 10 1024.8 1024.8 0.0
27/09:00pm 12.8 9.6 8.3 74 2.2 SE 15 19 8 10 1024.6 1024.6 0.0
27/08:30pm 13.4 9.4 8.3 71 2.5 SE 19 26 10 14 1024.3 1024.3 0.0
27/08:00pm 14.3 9.7 8.3 67 3.0 SE 22 30 12 16 1024.2 1024.2 0.0
27/07:30pm 15.3 11.0 7.8 61 3.7 SE 20 26 11 14 1024.2 1024.2 0.0
27/07:00pm 16.1 11.6 7.1 55 4.4 SSE 20 30 11 16 1024.2 1024.2 0.0
27/06:30pm 16.9 12.6 7.8 55 4.6 SSE 20 30 11 16 1024.0 1024.0 0.0
27/06:00pm 17.2 12.9 7.8 54 4.7 SSE 20 28 11 15 1024.0 1024.0 0.0
27/05:30pm 17.3 12.5 7.4 52 5.0 SSE 22 28 12 15 1024.0 1024.0 0.0
27/05:00pm 17.9 12.5 8.2 53 4.9 S 26 33 14 18 1023.9 1023.9 0.0
27/04:30pm 19.0 15.0 9.2 53 5.2 SSE 20 30 11 16 1023.9 1023.9 0.0
27/04:00pm 18.3 14.1 9.6 57 4.6 S 22 33 12 18 1024.2 1024.2 0.0
27/03:30pm 17.7 13.3 8.8 56 4.6 S 22 33 12 18 1024.2 1024.2 0.0
27/03:00pm 18.7 14.2 8.7 52 5.2 S 22 30 12 16 1024.5 1024.5 0.0
27/02:30pm 18.4 13.8 8.1 51 5.3 SE 22 28 12 15 1024.6 1024.6 0.0
27/02:00pm 17.9 12.8 7.6 51 5.2 S 24 33 13 18 1024.9 1024.9 0.0
27/01:30pm 17.8 12.7 9.2 57 4.5 S 26 33 14 18 1024.9 1024.9 0.0
27/01:00pm 17.6 13.1 8.5 55 4.7 S 22 30 12 16 1025.1 1025.1 0.0
27/12:30pm 17.2 12.3 8.4 56 4.5 SSW 24 33 13 18 1025.4 1025.4 0.0
27/12:00pm 16.8 12.5 7.7 55 4.6 SSW 20 30 11 16 1025.6 1025.6 0.0
27/11:30am 16.8 12.5 7.2 53 4.8 SSE 19 28 10 15 1025.9 1025.9 0.0
27/11:00am 15.2 10.7 7.0 58 4.0 SSW 20 30 11 16 1026.0 1026.0 0.0
27/10:30am 16.1 11.5 8.1 59 4.0 S 22 30 12 16 1026.1 1026.1 0.0
27/10:00am 14.8 10.9 7.1 60 3.8 S 17 22 9 12 1026.2 1026.2 0.0
27/09:30am 14.5 10.2 6.8 60 3.7 S 19 26 10 14 1026.2 1026.2 0.0
27/09:00am 15.6 11.1 6.9 56 4.2 S 20 30 11 16 1026.1 1026.1 0.0
27/08:30am 15.2 10.5 6.2 55 4.3 S 20 28 11 15 1026.1 1026.1 0.0
27/08:00am 13.9 9.4 6.0 59 3.7 S 19 26 10 14 1025.7 1025.7 0.0
27/07:30am 13.5 10.1 5.7 59 3.7 S 13 19 7 10 1025.6 1025.6 0.0
27/07:00am 13.1 9.2 5.3 59 3.6 S 15 20 8 11 1025.4 1025.4 0.0
27/06:30am 13.0 9.1 5.4 60 3.5 S 15 20 8 11 1025.1 1025.1 0.0
27/06:00am 12.9 8.7 5.6 61 3.4 S 17 20 9 11 1024.7 1024.7 0.0
27/05:30am 12.9 9.4 5.6 61 3.4 S 13 17 7 9 1024.5 1024.5 0.0
27/05:00am 12.8 8.5 5.2 60 3.5 S 17 20 9 11 1024.2 1024.2 0.0
27/04:30am 13.0 9.6 5.7 61 3.4 SSE 13 19 7 10 1023.9 1023.9 0.0
27/04:00am 12.9 9.8 5.6 61 3.4 SSE 11 15 6 8 1023.7 1023.7 0.0
27/03:30am 12.9 8.2 5.3 60 3.5 SSE 19 26 10 14 1023.7 1023.7 0.0
27/03:00am 13.1 9.3 5.8 61 3.4 SSE 15 20 8 11 1023.8 1023.8 0.0
27/02:30am 13.2 8.4 5.4 59 3.6 SSE 20 26 11 14 1023.7 1023.7 0.0
27/02:00am 13.5 9.7 5.9 60 3.6 S 15 20 8 11 1023.9 1023.9 0.0
27/01:30am 13.5 10.2 6.4 62 3.4 SSE 13 17 7 9 1024.0 1024.0 0.0
27/01:00am 13.6 10.6 6.2 61 3.5 SSE 11 13 6 7 1024.3 1024.3 0.0
27/12:30am 13.7 9.7 6.6 62 3.4 SSE 17 22 9 12 1024.5 1024.5 0.0
27/12:00am 13.6 9.6 6.7 63 3.3 S 17 24 9 13 1024.5 1024.5 0.0
 
Date/Time
EDT
Temp
°C
App
Temp
°C
Dew
Point
Rel
Hum
%
Delta-T
°C
Wind Press
QNH
hPa
Press
MSL
hPa
Rain
since 9 am
mm
Dir
 
Spd
km/h
Gust
km/h
Spd
kts
Gust
kts
26/11:30pm 13.6 9.4 5.7 59 3.7 SSW 17 24 9 13 1024.5 1024.5 0.0
26/11:00pm 13.7 9.6 6.3 61 3.5 S 17 24 9 13 1024.5 1024.5 0.0
26/10:30pm 13.9 9.5 6.5 61 3.6 S 19 26 10 14 1024.5 1024.5 0.0
26/10:00pm 14.1 10.2 7.2 63 3.4 S 17 24 9 13 1024.3 1024.3 0.0
26/09:30pm 13.9 9.5 6.7 62 3.5 S 19 26 10 14 1024.0 1024.0 0.0
26/09:00pm 13.9 9.5 6.7 62 3.5 S 19 28 10 15 1023.7 1023.7 0.0
26/08:30pm 15.6 11.3 7.9 60 3.9 S 20 33 11 18 1023.5 1023.5 0.0
26/08:00pm 15.2 10.5 7.7 61 3.7 SSW 22 28 12 15 1023.3 1023.3 0.0
26/07:30pm 15.3 10.8 8.5 64 3.4 SSW 22 30 12 16 1023.0 1023.0 0.0
26/07:00pm 15.3 11.3 9.0 66 3.2 S 20 30 11 16 1022.8 1022.8 0.0
26/06:30pm 15.6 10.9 9.3 66 3.2 SSW 24 33 13 18 1022.4 1022.4 0.0
26/06:00pm 16.0 11.4 9.7 66 3.3 SSW 24 35 13 19 1022.0 1022.0 0.0
26/05:30pm 16.2 11.8 10.3 68 3.1 SSW 24 30 13 16 1022.0 1022.0 0.0
26/05:00pm 15.9 12.2 10.2 69 3.0 SSW 20 32 11 17 1022.0 1022.0 0.0
26/04:30pm 16.4 12.3 11.3 72 2.7 SSW 24 33 13 18 1021.8 1021.8 0.0
26/04:00pm 16.7 11.7 11.0 69 3.0 SSW 28 37 15 20 1021.9 1021.9 0.0
26/03:30pm 17.6 13.3 13.1 75 2.5 SSW 28 35 15 19 1021.7 1021.7 0.0
26/03:00pm 17.2 14.0 11.9 71 2.9 S 20 28 11 15 1021.7 1021.7 0.0
26/02:30pm 17.0 14.2 10.1 64 3.6 SW 15 24 8 13 1021.7 1021.7 0.0
26/02:00pm 18.1 15.1 10.5 61 4.1 WSW 17 22 9 12 1021.7 1021.7 0.0
26/01:30pm 18.4 16.1 10.3 59 4.3 SSW 13 20 7 11 1021.7 1021.7 0.0
26/01:00pm 17.4 14.9 9.8 61 4.0 WSW 13 20 7 11 1021.9 1021.9 0.0
26/12:30pm 17.5 14.7 9.9 61 4.0 SW 15 24 8 13 1021.9 1021.9 0.0
26/12:00pm 16.8 14.2 9.5 62 3.8 WSW 13 26 7 14 1021.8 1021.8 0.0
26/11:30am 16.5 13.5 9.2 62 3.8 W 15 22 8 12 1021.8 1021.8 0.0
26/11:00am 16.4 13.7 9.1 62 3.8 W 13 19 7 10 1021.6 1021.6 0.0
26/10:30am 16.1 13.2 9.5 65 3.4 W 15 20 8 11 1021.7 1021.7 0.0
26/10:00am 15.0 11.5 8.9 67 3.1 W 17 24 9 13 1021.9 1021.9 0.0

Other Formats:

Comma delimited format used in spreadsheet applications
http://www.bom.gov.au/fwo/IDV60801/IDV60801.94870.axf

JavaScript Object Notation format (JSON) in row-major order
http://www.bom.gov.au/fwo/IDV60801/IDV60801.94870.json